Time,TemperatureF,DewpointF,PressureIn,WindDirection,WindDirectionDegrees,WindSpeedMPH,WindSpeedGustMPH,Humidity,HourlyPrecipIn,Conditions,Clouds,dailyrainin,SoftwareType,DateUTC
2013-06-15 01:02:00,61.0,42.0,-100.00,SSE,155,5.0,6.0,49,-99.99,,,-99.99,,2013-06-15 08:02:00,
2013-06-15 01:11:00,61.0,42.0,-100.00,SSE,155,5.0,6.0,49,-99.99,,,-99.99,,2013-06-15 08:11:00,
2013-06-15 03:02:00,60.0,41.0,-100.00,SE,135,8.0,12.0,49,-99.99,,,-99.99,,2013-06-15 10:02:00,
2013-06-15 03:11:00,60.0,41.0,-100.00,SE,135,8.0,12.0,49,-99.99,,,-99.99,,2013-06-15 10:11:00,
2013-06-15 04:01:00,58.0,41.0,-100.00,SE,145,9.0,12.0,53,-99.99,,,-99.99,,2013-06-15 11:01:00,
2013-06-15 05:01:00,56.0,42.0,-100.00,SSE,155,9.0,13.0,59,-99.99,,,-99.99,,2013-06-15 12:01:00,
2013-06-15 05:11:00,56.0,42.0,-100.00,SSE,155,9.0,13.0,59,-99.99,,,-99.99,,2013-06-15 12:11:00,
2013-06-15 06:10:00,54.0,42.0,-100.00,North,10,6.0,12.0,63,-99.99,,,-99.99,,2013-06-15 13:10:00,
2013-06-15 08:10:00,60.0,42.0,-100.00,SSE,165,9.0,15.0,51,-99.99,,,-99.99,,2013-06-15 15:10:00,
2013-06-15 10:10:00,67.0,42.0,-100.00,SSE,155,10.0,14.0,40,-99.99,,,-99.99,,2013-06-15 17:10:00,
2013-06-15 11:20:00,72.0,42.0,-100.00,SE,145,5.0,9.0,33,-99.99,,,-99.99,,2013-06-15 18:20:00,
2013-06-15 12:01:00,72.0,42.0,-100.00,SE,145,5.0,9.0,33,-99.99,,,-99.99,,2013-06-15 19:01:00,
2013-06-15 12:10:00,75.0,40.0,-100.00,WNW,290,5.0,7.0,28,-99.99,,,-99.99,,2013-06-15 19:10:00,
2013-06-15 12:11:00,72.0,42.0,-100.00,SE,145,5.0,9.0,33,-99.99,,,-99.99,,2013-06-15 19:11:00,
2013-06-15 13:02:00,75.0,40.0,-100.00,WNW,290,5.0,7.0,28,-99.99,,,-99.99,,2013-06-15 20:02:00,
2013-06-15 14:01:00,78.0,39.0,-100.00,NNW,330,5.0,10.0,24,-99.99,,,-99.99,,2013-06-15 21:01:00,
2013-06-15 14:10:00,80.0,38.0,-100.00,WSW,255,3.0,7.0,22,-99.99,,,-99.99,,2013-06-15 21:10:00,
2013-06-15 14:11:00,78.0,39.0,-100.00,NNW,330,5.0,10.0,24,-99.99,,,-99.99,,2013-06-15 21:11:00,
2013-06-15 15:01:00,80.0,38.0,-100.00,WSW,255,3.0,7.0,22,-99.99,,,-99.99,,2013-06-15 22:01:00,
2013-06-15 16:02:00,82.0,38.0,-100.00,NW,325,2.0,12.0,20,-99.99,,,-99.99,,2013-06-15 23:02:00,
2013-06-15 16:11:00,82.0,38.0,-100.00,NW,325,2.0,12.0,20,-99.99,,,-99.99,,2013-06-15 23:11:00,
2013-06-15 17:01:00,80.0,40.0,-100.00,WNW,285,5.0,6.0,23,-99.99,,,-99.99,,2013-06-16 00:01:00,
2013-06-15 18:01:00,81.0,37.0,-100.00,WNW,295,2.0,5.0,20,-99.99,,,-99.99,,2013-06-16 01:01:00,
2013-06-15 18:11:00,81.0,37.0,-100.00,WNW,295,2.0,5.0,20,-99.99,,,-99.99,,2013-06-16 01:11:00,
2013-06-15 19:01:00,81.0,39.0,-100.00,West,270,1.0,3.0,22,-99.99,,,-99.99,,2013-06-16 02:01:00,
2013-06-15 20:02:00,77.0,51.0,-100.00,North,5,2.0,3.0,40,-99.99,,,-99.99,,2013-06-16 03:02:00,
2013-06-15 21:01:00,75.0,49.0,-100.00,South,175,1.0,3.0,39,-99.99,,,-99.99,,2013-06-16 04:01:00,
2013-06-15 22:01:00,71.0,43.0,-100.00,SE,140,2.0,3.0,36,-99.99,,,-99.99,,2013-06-16 05:01:00,
2013-06-15 22:11:00,71.0,43.0,-100.00,SE,140,2.0,3.0,36,-99.99,,,-99.99,,2013-06-16 05:11:00,
2013-06-15 23:10:00,66.0,44.0,-100.00,SE,125,3.0,5.0,44,-99.99,,,-99.99,,2013-06-16 06:10:00,